createdAt,value
2019-05-10T00:01:49.778Z,2.67
2019-05-10T00:04:36.206Z,2.62
2019-05-10T00:07:22.297Z,2.42
2019-05-10T00:09:50.413Z,2.55
2019-05-10T00:12:30.223Z,2.92
2019-05-10T00:14:58.698Z,2.83
2019-05-10T00:17:27.109Z,2.70
2019-05-10T00:19:56.152Z,2.42
2019-05-10T00:22:24.574Z,3.10
2019-05-10T00:25:03.807Z,3.12
2019-05-10T00:27:22.558Z,2.87
2019-05-10T00:29:51.056Z,2.70
2019-05-10T00:32:19.516Z,2.80
2019-05-10T00:34:48.009Z,2.33
2019-05-10T00:37:16.491Z,2.67
2019-05-10T00:39:45.057Z,2.60
2019-05-10T00:42:14.177Z,2.40
2019-05-10T00:44:42.731Z,2.55
2019-05-10T00:47:11.042Z,2.40
2019-05-10T00:49:39.799Z,2.95
2019-05-10T00:52:08.311Z,2.35
2019-05-10T00:54:36.818Z,2.83
2019-05-10T00:57:05.280Z,2.50
2019-05-10T00:59:33.765Z,2.40
2019-05-10T01:02:02.293Z,2.90
2019-05-10T01:04:30.716Z,2.40
2019-05-10T01:06:59.464Z,2.75
2019-05-10T01:09:28.233Z,2.52
2019-05-10T01:11:56.938Z,2.35
2019-05-10T01:14:25.452Z,2.70
2019-05-10T01:16:53.885Z,2.90
2019-05-10T01:19:23.388Z,2.45
2019-05-10T01:21:51.882Z,2.87
2019-05-10T01:24:20.341Z,2.67
2019-05-10T01:26:48.850Z,2.58
2019-05-10T01:29:17.303Z,2.40
2019-05-10T01:31:45.871Z,2.65
2019-05-10T01:34:16.731Z,2.60
2019-05-10T01:36:45.211Z,2.90
2019-05-10T01:39:14.408Z,2.90
2019-05-10T01:41:43.008Z,2.98
2019-05-10T01:44:11.704Z,3.15
2019-05-10T01:46:40.118Z,2.80
2019-05-10T01:49:08.548Z,3.15
2019-05-10T01:51:37.059Z,3.20
2019-05-10T01:54:05.509Z,3.12
2019-05-10T01:56:34.014Z,2.83
2019-05-10T01:59:02.474Z,3.08
2019-05-10T02:01:31.261Z,2.98
2019-05-10T02:03:59.747Z,2.92
2019-05-10T02:06:28.233Z,3.50
2019-05-10T02:08:56.707Z,3.20
2019-05-10T02:11:25.200Z,2.90
2019-05-10T02:13:53.669Z,3.40
2019-05-10T02:16:22.151Z,3.95
2019-05-10T02:18:50.859Z,3.45
2019-05-10T02:21:19.282Z,3.33
2019-05-10T02:23:47.851Z,2.77
2019-05-10T02:26:16.241Z,3.20
2019-05-10T02:28:45.706Z,3.00
2019-05-10T02:31:14.957Z,3.25
2019-05-10T02:33:43.435Z,3.22
2019-05-10T02:36:11.929Z,3.37
2019-05-10T02:38:40.673Z,3.55
2019-05-10T02:41:09.476Z,3.50
2019-05-10T02:43:37.963Z,3.58
2019-05-10T02:46:06.450Z,3.22
2019-05-10T02:48:34.952Z,3.17
2019-05-10T02:51:03.560Z,3.35
2019-05-10T02:53:31.941Z,3.52
2019-05-10T02:56:00.472Z,3.62
2019-05-10T02:58:29.152Z,3.25
2019-05-10T03:00:57.766Z,3.30
2019-05-10T03:03:28.185Z,3.17
2019-05-10T03:05:56.767Z,3.22
2019-05-10T03:08:25.347Z,3.08
2019-05-10T03:10:56.798Z,3.30
2019-05-10T03:13:28.116Z,3.40
2019-05-10T03:15:56.638Z,4.00
2019-05-10T03:18:25.086Z,3.65
2019-05-10T03:20:53.815Z,3.85
2019-05-10T03:23:22.311Z,3.25
2019-05-10T03:25:50.741Z,3.85
2019-05-10T03:28:19.205Z,3.60
2019-05-10T03:30:47.713Z,3.62
2019-05-10T03:33:20.669Z,3.60
2019-05-10T03:35:49.170Z,3.58
2019-05-10T03:38:17.627Z,3.70
2019-05-10T03:40:46.129Z,3.50
2019-05-10T03:43:14.591Z,4.42
2019-05-10T03:45:43.345Z,3.87
2019-05-10T03:48:11.777Z,4.40
2019-05-10T03:50:40.278Z,4.72
2019-05-10T03:53:08.741Z,4.72
2019-05-10T03:55:37.232Z,4.53
2019-05-10T03:58:05.705Z,4.45
2019-05-10T04:00:34.192Z,5.15
2019-05-10T04:03:02.661Z,5.33
2019-05-10T04:05:39.081Z,5.10
2019-05-10T04:08:07.633Z,4.83
2019-05-10T04:10:36.102Z,5.40
2019-05-10T04:13:04.829Z,4.75
2019-05-10T04:15:33.268Z,5.75
2019-05-10T04:18:01.743Z,5.37
2019-05-10T04:20:30.118Z,5.83
2019-05-10T04:22:58.603Z,6.05
2019-05-10T04:25:27.091Z,5.45
2019-05-10T04:27:55.559Z,5.85
2019-05-10T04:30:24.038Z,5.62
2019-05-10T04:32:52.528Z,5.92
2019-05-10T04:35:21.015Z,6.40
2019-05-10T04:37:49.472Z,6.28
2019-05-10T04:40:18.956Z,6.10
2019-05-10T04:42:47.575Z,5.80
2019-05-10T04:45:16.981Z,6.03
2019-05-10T04:47:45.667Z,5.95
2019-05-10T04:50:14.451Z,6.35
2019-05-10T04:52:42.936Z,6.67
2019-05-10T04:55:11.481Z,6.30
2019-05-10T04:57:49.802Z,6.58
2019-05-10T05:00:08.562Z,6.33
2019-05-10T05:02:37.344Z,6.08
2019-05-10T05:05:06.011Z,6.67
2019-05-10T05:07:34.471Z,6.85
2019-05-10T05:10:02.899Z,6.67
2019-05-10T05:12:31.640Z,5.92
2019-05-10T05:15:00.110Z,6.78
2019-05-10T05:17:28.811Z,6.00
2019-05-10T05:19:57.307Z,6.10
2019-05-10T05:22:26.042Z,5.75
2019-05-10T05:24:55.258Z,5.87
2019-05-10T05:27:23.223Z,11.90
2019-05-10T05:29:51.644Z,6.20
2019-05-10T05:32:20.181Z,5.95
2019-05-10T05:34:49.419Z,5.42
2019-05-10T05:37:18.619Z,5.25
2019-05-10T05:39:47.098Z,5.17
2019-05-10T05:42:15.718Z,5.00
2019-05-10T05:44:44.185Z,4.70
2019-05-10T05:47:12.573Z,4.78
2019-05-10T05:49:41.028Z,4.30
2019-05-10T05:52:09.520Z,4.40
2019-05-10T05:54:37.985Z,4.40
2019-05-10T05:57:06.517Z,5.12
2019-05-10T05:59:34.949Z,3.95
2019-05-10T06:02:07.695Z,4.53
2019-05-10T06:04:32.201Z,4.22
2019-05-10T06:07:00.722Z,3.92
2019-05-10T06:09:32.063Z,3.92
2019-05-10T06:11:57.666Z,3.85
2019-05-10T06:14:26.139Z,3.98
2019-05-10T06:17:06.482Z,3.80
2019-05-10T06:19:42.682Z,3.70
2019-05-10T06:22:11.176Z,3.55
2019-05-10T06:24:39.670Z,3.55
2019-05-10T06:27:08.164Z,3.92
2019-05-10T06:29:36.606Z,3.35
2019-05-10T06:32:05.108Z,3.80
2019-05-10T06:34:38.798Z,3.95
2019-05-10T06:37:02.069Z,2.90
2019-05-10T06:39:30.524Z,3.05
2019-05-10T06:41:59.015Z,2.92
2019-05-10T06:44:31.136Z,3.55
2019-05-10T06:47:08.386Z,3.35
2019-05-10T06:49:34.601Z,3.13
2019-05-10T06:52:03.096Z,2.90
2019-05-10T06:54:31.618Z,3.05
2019-05-10T06:57:00.032Z,2.65
2019-05-10T06:59:28.525Z,2.60
2019-05-10T07:01:57.025Z,2.37
2019-05-10T07:04:25.481Z,2.42
2019-05-10T07:06:53.969Z,2.22
2019-05-10T07:09:22.444Z,2.00
2019-05-10T07:11:51.532Z,2.50
2019-05-10T07:14:25.517Z,2.20
2019-05-10T07:16:48.547Z,2.70
2019-05-10T07:19:17.016Z,2.42
2019-05-10T07:21:50.783Z,2.17
2019-05-10T07:24:18.510Z,2.25
2019-05-10T07:26:42.686Z,2.00
2019-05-10T07:29:11.432Z,1.92
2019-05-10T07:31:39.869Z,1.50
2019-05-10T07:34:09.663Z,1.67
2019-05-10T07:36:36.801Z,1.80
2019-05-10T07:39:08.310Z,1.77
2019-05-10T07:41:37.658Z,2.08
2019-05-10T07:44:10.628Z,1.77
2019-05-10T07:46:40.214Z,1.52
2019-05-10T07:49:07.301Z,1.35
2019-05-10T07:51:36.092Z,1.55
2019-05-10T07:54:06.244Z,1.17
2019-05-10T07:56:33.141Z,1.25
2019-05-10T07:59:01.550Z,1.20
2019-05-10T08:01:32.659Z,1.30
2019-05-10T08:03:59.203Z,1.62
2019-05-10T08:06:31.984Z,1.17
2019-05-10T08:09:01.922Z,1.17
2019-05-10T08:11:24.407Z,1.17
2019-05-10T08:13:57.801Z,1.30
2019-05-10T08:16:22.980Z,1.37
2019-05-10T08:18:55.688Z,1.50
2019-05-10T08:21:23.899Z,1.85
2019-05-10T08:23:51.870Z,1.30
2019-05-10T08:26:24.780Z,1.47
2019-05-10T08:28:57.444Z,1.20
2019-05-10T08:31:26.513Z,1.10
2019-05-10T08:33:58.753Z,1.25
2019-05-10T08:36:27.599Z,1.27
2019-05-10T08:39:05.087Z,1.10
2019-05-10T08:41:25.291Z,1.20
2019-05-10T08:43:53.626Z,1.00
2019-05-10T08:46:29.179Z,1.27
2019-05-10T08:48:53.827Z,1.00
2019-05-10T08:51:22.614Z,1.15
2019-05-10T08:53:53.590Z,0.90
2019-05-10T08:56:21.681Z,0.90
2019-05-10T08:58:55.392Z,0.93
2019-05-10T09:01:29.628Z,1.25
2019-05-10T09:03:59.912Z,0.90
2019-05-10T09:06:22.117Z,1.02
2019-05-10T09:08:52.834Z,0.88
2019-05-10T09:11:18.542Z,0.85
2019-05-10T09:13:47.050Z,0.90
2019-05-10T09:16:15.741Z,1.00
2019-05-10T09:18:50.293Z,1.00
2019-05-10T09:21:14.251Z,0.82
2019-05-10T09:23:42.683Z,1.22
2019-05-10T09:26:15.279Z,1.17
2019-05-10T09:28:38.134Z,1.10
2019-05-10T09:31:18.671Z,1.00
2019-05-10T09:33:35.086Z,1.10
2019-05-10T09:36:03.561Z,1.52
2019-05-10T09:38:37.148Z,1.30
2019-05-10T09:41:02.445Z,1.02
2019-05-10T09:43:29.020Z,1.10
2019-05-10T09:45:57.489Z,1.10
2019-05-10T09:48:26.179Z,0.90
2019-05-10T09:50:56.001Z,1.02
2019-05-10T09:53:26.715Z,1.00
2019-05-10T09:56:01.745Z,1.10
2019-05-10T09:58:22.206Z,0.90
2019-05-10T10:00:48.784Z,1.20
2019-05-10T10:03:17.292Z,1.02
2019-05-10T10:05:48.078Z,0.80
2019-05-10T10:08:14.420Z,0.90
2019-05-10T10:10:42.830Z,0.95
2019-05-10T10:13:14.011Z,1.00
2019-05-10T10:15:40.832Z,1.25
2019-05-10T10:18:12.476Z,1.22
2019-05-10T10:20:43.448Z,0.80
2019-05-10T10:23:07.489Z,0.93
2019-05-10T10:25:40.545Z,0.90
2019-05-10T10:28:08.193Z,1.07
2019-05-10T10:30:33.830Z,0.88
2019-05-10T10:33:05.908Z,1.10
2019-05-10T10:35:31.150Z,0.90
2019-05-10T10:38:02.874Z,1.50
2019-05-10T10:40:28.153Z,1.25
2019-05-10T10:42:57.801Z,0.70
2019-05-10T10:45:27.674Z,0.90
2019-05-10T10:47:57.158Z,0.88
2019-05-10T10:50:24.362Z,0.98
2019-05-10T10:52:52.816Z,1.07
2019-05-10T10:55:21.304Z,1.00
2019-05-10T10:57:50.103Z,0.62
2019-05-10T11:00:23.657Z,0.82
2019-05-10T11:02:51.888Z,1.02
2019-05-10T11:05:18.653Z,1.02
2019-05-10T11:07:47.763Z,1.05
2019-05-10T11:10:19.019Z,0.78
2019-05-10T11:12:44.047Z,0.80
2019-05-10T11:15:16.530Z,0.90
2019-05-10T11:17:47.890Z,1.10
2019-05-10T11:20:16.417Z,1.40
2019-05-10T11:22:49.787Z,1.05
2019-05-10T11:25:14.648Z,0.95
2019-05-10T11:27:47.629Z,1.17
2019-05-10T11:30:15.354Z,1.25
2019-05-10T11:32:43.823Z,1.02
2019-05-10T11:35:18.965Z,1.27
2019-05-10T11:37:43.367Z,1.10
2019-05-10T11:40:11.315Z,0.80
2019-05-10T11:42:43.832Z,0.80
2019-05-10T11:45:11.075Z,0.93
2019-05-10T11:47:42.473Z,0.88
2019-05-10T11:50:10.615Z,1.20
2019-05-10T11:52:42.179Z,1.20
2019-05-10T11:55:12.969Z,0.88
2019-05-10T11:57:44.351Z,1.10
2019-05-10T12:00:24.528Z,0.85
2019-05-10T12:03:01.105Z,0.93
2019-05-10T12:05:16.692Z,0.90
2019-05-10T12:07:45.683Z,0.93
2019-05-10T12:10:25.663Z,0.95
2019-05-10T12:13:08.675Z,1.10
2019-05-10T12:17:59.555Z,0.90
2019-05-10T12:20:39.362Z,1.07
2019-05-10T12:22:54.496Z,0.80
2019-05-10T12:25:42.610Z,0.93
2019-05-10T12:27:53.463Z,0.80
2019-05-10T12:30:21.918Z,0.80
2019-05-10T12:33:05.859Z,0.70
2019-05-10T12:35:35.522Z,0.80
2019-05-10T12:38:01.499Z,0.80
2019-05-10T12:40:31.418Z,0.78
2019-05-10T12:42:57.925Z,0.90
2019-05-10T12:45:32.542Z,0.88
2019-05-10T12:48:01.631Z,0.90
2019-05-10T12:50:30.578Z,0.80
2019-05-10T12:53:12.649Z,0.80
2019-05-10T12:55:27.505Z,0.93
2019-05-10T12:57:56.239Z,0.90
2019-05-10T13:00:24.745Z,0.70
2019-05-10T13:02:53.651Z,0.70
2019-05-10T13:05:30.942Z,0.90
2019-05-10T13:07:50.802Z,1.00
2019-05-10T13:10:19.426Z,0.82
2019-05-10T13:12:47.766Z,1.00
2019-05-10T13:15:16.330Z,1.70
2019-05-10T13:17:52.996Z,0.90
2019-05-10T13:20:19.419Z,1.40
2019-05-10T13:22:47.925Z,1.20
2019-05-10T13:25:16.582Z,1.00
2019-05-10T13:27:45.047Z,0.90
2019-05-10T13:30:13.522Z,1.02
2019-05-10T13:32:42.795Z,0.80
2019-05-10T13:35:11.212Z,0.70
2019-05-10T13:37:39.686Z,1.00
2019-05-10T13:40:11.157Z,0.80
2019-05-10T13:42:43.712Z,0.82
2019-05-10T13:45:08.107Z,0.80
2019-05-10T13:47:36.569Z,0.80
2019-05-10T13:50:05.949Z,0.80
2019-05-10T13:52:37.978Z,0.70
2019-05-10T13:55:03.016Z,0.85
2019-05-10T13:57:31.782Z,0.80
2019-05-10T14:00:02.248Z,0.80
2019-05-10T14:02:33.272Z,0.90
2019-05-10T14:04:57.898Z,0.80
2019-05-10T14:07:26.633Z,0.78
2019-05-10T14:09:55.056Z,0.65
2019-05-10T14:12:25.588Z,0.70
2019-05-10T14:14:55.280Z,1.00
2019-05-10T14:17:20.515Z,0.75
2019-05-10T14:19:48.998Z,0.70
2019-05-10T14:22:17.708Z,0.68
2019-05-10T14:24:50.717Z,0.80
2019-05-10T14:27:14.742Z,0.75
2019-05-10T14:29:43.837Z,0.78
2019-05-10T14:32:12.314Z,0.70
2019-05-10T14:34:51.095Z,0.60
2019-05-10T14:37:19.950Z,0.68
2019-05-10T14:39:48.342Z,0.62
2019-05-10T14:42:16.850Z,0.60
2019-05-10T14:44:48.181Z,0.70
2019-05-10T14:49:46.888Z,0.70
2019-05-10T14:52:14.076Z,0.80
2019-05-10T14:54:44.576Z,0.57
2019-05-10T14:57:12.079Z,0.93
2019-05-10T14:59:40.896Z,0.80
2019-05-10T15:02:17.024Z,0.60
2019-05-10T15:04:44.989Z,0.80
2019-05-10T15:07:14.279Z,0.80
2019-05-10T15:09:43.572Z,0.60
2019-05-10T15:12:16.404Z,0.80
2019-05-10T15:14:42.705Z,0.60
2019-05-10T15:17:13.547Z,0.70
2019-05-10T15:19:56.514Z,0.65
2019-05-10T15:22:18.579Z,0.68
2019-05-10T15:27:16.156Z,0.70
2019-05-10T15:29:41.232Z,0.80
2019-05-10T15:32:09.735Z,0.50
2019-05-10T15:34:38.138Z,0.65
2019-05-10T15:37:09.284Z,0.75
2019-05-10T15:39:35.127Z,0.80
2019-05-10T15:42:03.589Z,0.85
2019-05-10T15:44:33.744Z,1.20
2019-05-10T15:47:00.525Z,0.90
2019-05-10T15:49:29.782Z,1.17
2019-05-10T15:52:16.163Z,0.90
2019-05-10T15:54:26.726Z,0.80
2019-05-10T15:56:55.773Z,1.20
2019-05-10T15:59:24.198Z,0.98
2019-05-10T16:01:52.371Z,1.20
2019-05-10T16:04:20.840Z,1.40
2019-05-10T16:06:49.407Z,1.10
2019-05-10T16:09:19.119Z,1.00
2019-05-10T16:11:46.566Z,1.20
2019-05-10T16:14:15.079Z,0.98
2019-05-10T16:16:43.561Z,0.90
2019-05-10T16:19:12.760Z,0.68
2019-05-10T16:21:40.653Z,0.93
2019-05-10T16:24:09.077Z,0.90
2019-05-10T16:26:39.169Z,1.20
2019-05-10T16:29:07.756Z,0.70
2019-05-10T16:31:36.169Z,0.85
2019-05-10T16:34:04.650Z,0.70
2019-05-10T16:36:33.131Z,1.12
2019-05-10T16:39:02.106Z,0.70
2019-05-10T16:41:32.831Z,0.55
2019-05-10T16:46:28.987Z,1.10
2019-05-10T16:48:57.407Z,0.80
2019-05-10T16:51:25.869Z,0.82
2019-05-10T16:53:54.355Z,0.60
2019-05-10T16:56:22.816Z,0.75
2019-05-10T16:58:53.241Z,0.77
2019-05-10T17:01:25.371Z,0.70
2019-05-10T17:03:51.147Z,0.90
2019-05-10T17:06:17.258Z,0.85
2019-05-10T17:08:45.756Z,0.90
2019-05-10T17:11:14.222Z,0.80
2019-05-10T17:13:43.285Z,0.93
2019-05-10T17:16:11.558Z,1.20
2019-05-10T17:18:39.624Z,0.68
2019-05-10T17:21:08.151Z,0.88
2019-05-10T17:23:36.615Z,0.80
2019-05-10T17:26:05.093Z,1.00
2019-05-10T17:28:35.371Z,0.95
2019-05-10T17:31:07.707Z,1.07
2019-05-10T17:33:31.128Z,0.90
2019-05-10T17:36:07.974Z,1.35
2019-05-10T17:38:28.029Z,1.00
2019-05-10T17:40:56.493Z,1.00
2019-05-10T17:43:24.955Z,0.85
2019-05-10T17:45:53.969Z,0.95
2019-05-10T17:48:22.384Z,1.20
2019-05-10T17:50:50.865Z,3.12
2019-05-10T17:53:19.303Z,1.07
2019-05-10T17:55:49.180Z,1.10
2019-05-10T17:58:17.188Z,0.90
2019-05-10T18:00:44.836Z,0.90
2019-05-10T18:03:13.339Z,0.80
2019-05-10T18:05:46.878Z,1.92
2019-05-10T18:08:10.288Z,1.00
2019-05-10T18:10:38.799Z,0.80
2019-05-10T18:13:07.256Z,1.02
2019-05-10T18:15:35.733Z,1.00
2019-05-10T18:18:04.619Z,1.00
2019-05-10T18:20:40.802Z,1.50
2019-05-10T18:23:01.546Z,1.95
2019-05-10T18:25:30.026Z,1.50
2019-05-10T18:27:58.510Z,1.82
2019-05-10T18:30:27.138Z,1.45
2019-05-10T18:32:55.594Z,1.80
2019-05-10T18:35:24.294Z,1.45
2019-05-10T18:37:53.674Z,1.17
2019-05-10T18:40:25.330Z,1.45
2019-05-10T18:42:49.708Z,1.55
2019-05-10T18:45:18.454Z,1.50
2019-05-10T18:47:46.970Z,1.40
2019-05-10T18:50:15.469Z,1.75
2019-05-10T18:52:43.947Z,1.25
2019-05-10T18:55:12.416Z,1.52
2019-05-10T18:57:45.230Z,1.50
2019-05-10T19:00:10.566Z,2.08
2019-05-10T19:02:39.086Z,1.65
2019-05-10T19:05:09.298Z,1.40
2019-05-10T19:07:37.807Z,1.33
2019-05-10T19:10:06.584Z,1.70
2019-05-10T19:12:35.658Z,1.60
2019-05-10T19:15:09.005Z,1.50
2019-05-10T19:17:33.551Z,1.85
2019-05-10T19:20:02.183Z,1.50
2019-05-10T19:22:30.995Z,1.50
2019-05-10T19:25:10.657Z,1.65
2019-05-10T19:27:28.094Z,2.02
2019-05-10T19:29:57.216Z,1.35
2019-05-10T19:32:25.700Z,1.52
2019-05-10T19:34:57.464Z,1.80
2019-05-10T19:37:30.012Z,1.50
2019-05-10T19:39:51.941Z,1.93
2019-05-10T19:42:20.527Z,2.10
2019-05-10T19:44:49.020Z,1.98
2019-05-10T19:47:19.988Z,7.00
2019-05-10T19:49:51.778Z,7.83
2019-05-10T19:52:14.745Z,6.17
2019-05-10T19:54:43.226Z,6.95
2019-05-10T19:57:16.193Z,14.68
2019-05-10T19:59:43.906Z,12.45
2019-05-10T20:02:08.984Z,12.60
2019-05-10T20:04:37.439Z,14.00
2019-05-10T20:07:05.935Z,12.82
2019-05-10T20:09:35.508Z,8.60
2019-05-10T20:12:03.901Z,6.72
2019-05-10T20:14:33.410Z,4.72
2019-05-10T20:17:01.984Z,4.45
2019-05-10T20:19:30.551Z,4.55
2019-05-10T20:21:59.014Z,5.75
2019-05-10T20:24:27.518Z,6.85
2019-05-10T20:26:55.994Z,36.33
2019-05-10T20:29:24.461Z,57.67
2019-05-10T20:31:52.948Z,49.50
2019-05-10T20:34:24.295Z,32.60
2019-05-10T20:36:50.216Z,30.75
2019-05-10T20:39:18.687Z,27.93
2019-05-10T20:41:47.183Z,23.92
2019-05-10T20:44:15.655Z,24.47
2019-05-10T20:46:44.154Z,27.73
2019-05-10T20:49:12.558Z,25.95
2019-05-10T20:51:41.297Z,27.55
2019-05-10T20:54:09.790Z,23.47
2019-05-10T20:56:38.337Z,24.35
2019-05-10T20:59:06.754Z,26.85
2019-05-10T21:01:36.001Z,23.98
2019-05-10T21:04:04.460Z,20.37
2019-05-10T21:06:32.939Z,17.75
2019-05-10T21:09:01.393Z,16.90
2019-05-10T21:11:30.181Z,13.05
2019-05-10T21:13:59.003Z,13.05
2019-05-10T21:16:27.497Z,12.30
2019-05-10T21:18:55.965Z,11.25
2019-05-10T21:21:24.402Z,11.55
2019-05-10T21:23:52.900Z,10.98
2019-05-10T21:26:21.353Z,8.00
2019-05-10T21:28:49.872Z,8.33
2019-05-10T21:31:18.329Z,8.58
2019-05-10T21:33:46.829Z,7.70
2019-05-10T21:36:15.330Z,8.43
2019-05-10T21:38:44.550Z,7.53
2019-05-10T21:41:13.104Z,6.20
2019-05-10T21:43:41.819Z,5.70
2019-05-10T21:46:10.328Z,5.75
2019-05-10T21:48:42.087Z,6.85
2019-05-10T21:51:10.623Z,6.42
2019-05-10T21:53:40.250Z,7.53
2019-05-10T21:56:09.611Z,8.43
2019-05-10T21:58:38.860Z,8.70
2019-05-10T22:01:08.092Z,6.53
2019-05-10T22:03:36.617Z,5.47
2019-05-10T22:06:05.441Z,4.65
2019-05-10T22:08:48.481Z,5.03
2019-05-10T22:11:02.454Z,4.92
2019-05-10T22:13:30.854Z,4.92
2019-05-10T22:15:59.328Z,4.53
2019-05-10T22:18:27.802Z,4.65
2019-05-10T22:21:02.056Z,4.67
2019-05-10T22:23:33.619Z,5.12
2019-05-10T22:28:29.912Z,5.70
2019-05-10T22:30:58.494Z,5.70
2019-05-10T22:33:27.078Z,5.33
2019-05-10T22:35:56.563Z,5.20
2019-05-10T22:38:26.040Z,4.85
2019-05-10T22:40:54.523Z,5.47
2019-05-10T22:43:23.001Z,5.53
2019-05-10T22:45:51.764Z,5.80
2019-05-10T22:48:20.285Z,5.47
2019-05-10T22:50:48.822Z,4.92
2019-05-10T22:53:17.399Z,5.90
2019-05-10T22:55:45.990Z,5.45
2019-05-10T22:58:14.550Z,5.90
2019-05-10T23:00:43.427Z,6.00
2019-05-10T23:03:11.918Z,6.78
2019-05-10T23:05:40.475Z,6.58
2019-05-10T23:08:09.493Z,5.12
2019-05-10T23:10:39.026Z,5.15
2019-05-10T23:13:08.524Z,5.72
2019-05-10T23:15:37.150Z,5.00
2019-05-10T23:18:05.667Z,5.40
2019-05-10T23:20:34.185Z,4.97
2019-05-10T23:23:02.713Z,5.30
2019-05-10T23:25:31.409Z,4.80
2019-05-10T23:27:59.946Z,5.30
2019-05-10T23:30:28.449Z,5.12
2019-05-10T23:32:57.007Z,4.15
2019-05-10T23:35:25.513Z,4.72
2019-05-10T23:37:53.956Z,5.00
2019-05-10T23:40:22.449Z,4.62
2019-05-10T23:42:50.929Z,4.92
2019-05-10T23:45:19.667Z,4.40
2019-05-10T23:47:48.213Z,4.90
2019-05-10T23:50:16.721Z,4.42
2019-05-10T23:52:45.283Z,4.92
2019-05-10T23:55:14.049Z,5.30
2019-05-10T23:57:42.540Z,5.03
